createdAt,value
2022-09-07T00:00:29.775Z,6.63
2022-09-07T00:03:16.051Z,7.50
2022-09-07T00:06:05.607Z,6.60
2022-09-07T00:08:51.572Z,7.20
2022-09-07T00:11:38.360Z,7.93
2022-09-07T00:14:24.528Z,7.60
2022-09-07T00:17:10.315Z,7.60
2022-09-07T00:19:56.381Z,6.83
2022-09-07T00:22:42.761Z,7.17
2022-09-07T00:25:31.897Z,8.17
2022-09-07T00:28:20.056Z,6.97
2022-09-07T00:31:10.316Z,7.47
2022-09-07T00:33:58.443Z,7.37
2022-09-07T00:36:45.548Z,7.40
2022-09-07T00:39:33.028Z,7.43
2022-09-07T00:42:22.848Z,7.03
2022-09-07T00:45:11.191Z,7.43
2022-09-07T00:48:00.435Z,7.57
2022-09-07T00:50:52.143Z,7.67
2022-09-07T00:53:40.714Z,8.60
2022-09-07T00:56:27.719Z,6.90
2022-09-07T00:59:19.042Z,6.80
2022-09-07T01:02:05.375Z,7.27
2022-09-07T01:04:52.947Z,7.00
2022-09-07T01:07:38.827Z,8.17
2022-09-07T01:10:26.596Z,6.80
2022-09-07T01:13:12.682Z,7.47
2022-09-07T01:15:58.626Z,7.30
2022-09-07T01:18:53.907Z,7.27
2022-09-07T01:21:42.919Z,7.83
2022-09-07T01:24:38.886Z,7.50
2022-09-07T01:27:24.963Z,7.07
2022-09-07T01:30:13.279Z,7.40
2022-09-07T01:32:59.070Z,8.70
2022-09-07T01:36:00.680Z,7.23
2022-09-07T01:38:49.010Z,7.27
2022-09-07T01:41:53.522Z,6.30
2022-09-07T01:44:39.303Z,7.27
2022-09-07T01:47:29.637Z,7.40
2022-09-07T01:50:21.292Z,7.47
2022-09-07T01:53:10.418Z,8.60
2022-09-07T01:56:02.388Z,7.90
2022-09-07T01:58:52.503Z,7.90
2022-09-07T02:01:44.479Z,7.97
2022-09-07T02:04:45.181Z,7.70
2022-09-07T02:07:35.313Z,7.57
2022-09-07T02:10:27.302Z,7.63
2022-09-07T02:13:16.446Z,6.97
2022-09-07T02:16:03.742Z,6.60
2022-09-07T02:18:53.664Z,7.00
2022-09-07T02:21:42.773Z,6.90
2022-09-07T02:24:40.666Z,7.50
2022-09-07T02:27:34.563Z,7.50
2022-09-07T02:30:20.863Z,7.67
2022-09-07T02:33:07.016Z,7.90
2022-09-07T02:35:52.857Z,8.17
2022-09-07T02:38:39.129Z,7.90
2022-09-07T02:41:38.807Z,7.77
2022-09-07T02:44:31.146Z,7.10
2022-09-07T02:47:26.187Z,6.00
2022-09-07T02:50:34.481Z,6.10
2022-09-07T02:53:23.433Z,6.13
2022-09-07T02:56:28.225Z,6.23
2022-09-07T02:59:21.865Z,6.10
2022-09-07T03:02:31.180Z,5.60
2022-09-07T03:05:19.388Z,6.40
2022-09-07T03:08:07.780Z,6.73
2022-09-07T03:10:54.081Z,7.13
2022-09-07T03:13:39.709Z,5.63
2022-09-07T03:16:25.641Z,6.00
2022-09-07T03:19:11.746Z,7.00
2022-09-07T03:21:57.584Z,6.53
2022-09-07T03:24:43.449Z,7.60
2022-09-07T03:27:29.355Z,7.60
2022-09-07T03:30:16.333Z,6.67
2022-09-07T03:33:03.693Z,6.47
2022-09-07T03:35:57.557Z,6.30
2022-09-07T03:38:43.327Z,7.37
2022-09-07T03:41:30.031Z,6.57
2022-09-07T03:44:15.968Z,6.73
2022-09-07T03:47:01.658Z,7.10
2022-09-07T03:49:48.840Z,6.00
2022-09-07T03:52:36.192Z,5.90
2022-09-07T03:55:21.710Z,6.40
2022-09-07T03:58:07.724Z,6.07
2022-09-07T04:00:53.518Z,7.17
2022-09-07T04:03:39.885Z,7.40
2022-09-07T04:06:27.827Z,9.20
2022-09-07T04:09:14.904Z,7.60
2022-09-07T04:12:00.753Z,7.60
2022-09-07T04:14:46.378Z,8.10
2022-09-07T04:17:31.856Z,8.47
2022-09-07T04:20:19.764Z,7.50
2022-09-07T04:23:05.569Z,10.00
2022-09-07T04:25:52.389Z,8.40
2022-09-07T04:28:39.126Z,7.80
2022-09-07T04:31:25.122Z,7.67
2022-09-07T04:34:11.105Z,7.70
2022-09-07T04:36:57.059Z,8.17
2022-09-07T04:39:42.928Z,7.90
2022-09-07T04:42:33.898Z,8.47
2022-09-07T04:45:20.940Z,8.03
2022-09-07T04:48:06.906Z,8.40
2022-09-07T04:50:52.663Z,10.10
2022-09-07T04:53:39.467Z,8.90
2022-09-07T04:56:25.400Z,8.43
2022-09-07T04:59:11.234Z,8.60
2022-09-07T05:01:57.164Z,8.73
2022-09-07T05:04:42.913Z,9.00
2022-09-07T05:07:28.741Z,9.30
2022-09-07T05:10:14.545Z,9.27
2022-09-07T05:13:00.281Z,10.27
2022-09-07T05:15:48.424Z,8.47
2022-09-07T05:18:36.926Z,9.87
2022-09-07T05:21:23.647Z,9.33
2022-09-07T05:24:10.875Z,9.33
2022-09-07T05:26:59.470Z,9.77
2022-09-07T05:32:46.676Z,8.90
2022-09-07T05:35:32.456Z,8.60
2022-09-07T05:38:17.920Z,10.60
2022-09-07T05:41:14.084Z,9.47
2022-09-07T05:47:06.418Z,11.27
2022-09-07T05:49:54.020Z,9.27
2022-09-07T05:52:43.463Z,9.90
2022-09-07T05:55:31.220Z,9.10
2022-09-07T05:58:17.977Z,9.43
2022-09-07T06:01:11.118Z,10.73
2022-09-07T06:03:56.989Z,9.27
2022-09-07T06:06:47.785Z,9.50
2022-09-07T06:12:50.796Z,13.30
2022-09-07T06:15:36.586Z,10.00
2022-09-07T06:18:22.369Z,11.13
2022-09-07T06:21:12.003Z,11.27
2022-09-07T06:24:00.303Z,10.00
2022-09-07T06:26:46.283Z,10.00
2022-09-07T06:29:31.911Z,9.77
2022-09-07T06:35:23.413Z,10.67
2022-09-07T06:38:10.045Z,10.10
2022-09-07T06:44:01.728Z,10.83
2022-09-07T06:47:03.916Z,10.23
2022-09-07T06:49:51.336Z,12.33
2022-09-07T06:55:45.200Z,11.37
2022-09-07T06:58:31.053Z,11.90
2022-09-07T07:01:18.067Z,11.73
2022-09-07T07:04:04.492Z,11.90
2022-09-07T07:06:50.024Z,10.67
2022-09-07T07:09:35.681Z,11.67
2022-09-07T07:15:06.664Z,10.23
2022-09-07T07:17:58.427Z,9.30
2022-09-07T07:20:48.409Z,9.20
2022-09-07T07:23:35.079Z,8.80
2022-09-07T07:26:21.735Z,8.50
2022-09-07T07:29:07.705Z,7.43
2022-09-07T07:31:53.665Z,7.73
2022-09-07T07:34:39.370Z,7.83
2022-09-07T07:37:28.191Z,7.57
2022-09-07T07:40:15.585Z,8.13
2022-09-07T07:43:02.683Z,6.30
2022-09-07T07:45:55.822Z,6.93
2022-09-07T07:48:41.872Z,8.73
2022-09-07T07:51:27.866Z,6.37
2022-09-07T07:54:13.410Z,7.03
2022-09-07T07:56:59.196Z,6.67
2022-09-07T07:59:45.166Z,6.73
2022-09-07T08:02:30.719Z,6.73
2022-09-07T08:05:17.079Z,6.00
2022-09-07T08:08:03.286Z,6.70
2022-09-07T08:10:51.922Z,6.80
2022-09-07T08:13:41.970Z,6.47
2022-09-07T08:16:28.959Z,6.83
2022-09-07T08:19:15.028Z,7.10
2022-09-07T08:22:00.770Z,7.07
2022-09-07T08:24:46.555Z,7.60
2022-09-07T08:27:32.543Z,5.93
2022-09-07T08:30:18.707Z,5.80
2022-09-07T08:33:04.785Z,6.87
2022-09-07T08:35:58.248Z,6.07
2022-09-07T08:38:44.280Z,5.50
2022-09-07T08:41:33.078Z,7.53
2022-09-07T08:44:19.221Z,5.80
2022-09-07T08:47:25.527Z,9.50
2022-09-07T08:50:15.047Z,6.83
2022-09-07T08:53:09.221Z,6.60
2022-09-07T08:56:11.457Z,6.87
2022-09-07T08:58:57.990Z,7.63
2022-09-07T09:02:26.581Z,10.73
2022-09-07T09:08:01.449Z,6.70
2022-09-07T09:10:52.594Z,6.30
2022-09-07T09:13:54.839Z,6.87
2022-09-07T09:16:44.881Z,6.60
2022-09-07T09:19:56.035Z,6.27
2022-09-07T09:22:41.711Z,5.90
2022-09-07T09:25:35.045Z,6.27
2022-09-07T09:28:20.889Z,7.07
2022-09-07T09:31:06.731Z,6.47
2022-09-07T09:34:23.754Z,6.07
2022-09-07T09:37:13.098Z,5.83
2022-09-07T09:40:02.241Z,5.70
2022-09-07T09:42:58.439Z,6.30
2022-09-07T09:49:02.415Z,6.03
2022-09-07T09:55:23.278Z,6.30
2022-09-07T10:01:33.571Z,6.10
2022-09-07T10:04:21.508Z,5.53
2022-09-07T10:07:10.102Z,4.93
2022-09-07T10:09:56.638Z,5.60
2022-09-07T10:12:42.729Z,5.00
2022-09-07T10:15:40.886Z,5.50
2022-09-07T10:18:32.272Z,5.00
2022-09-07T10:21:25.898Z,5.50
2022-09-07T10:24:13.060Z,4.97
2022-09-07T10:26:58.989Z,5.50
2022-09-07T10:29:44.693Z,5.40
2022-09-07T10:32:49.355Z,5.43
2022-09-07T10:35:38.347Z,4.87
2022-09-07T10:38:25.801Z,4.73
2022-09-07T10:41:11.907Z,5.03
2022-09-07T10:43:57.932Z,5.30
2022-09-07T10:47:00.157Z,4.90
2022-09-07T10:53:38.947Z,4.50
2022-09-07T10:56:21.069Z,4.60
2022-09-07T10:59:18.007Z,5.03
2022-09-07T11:02:11.160Z,5.17
2022-09-07T11:05:09.543Z,4.20
2022-09-07T11:08:01.919Z,4.70
2022-09-07T11:10:58.254Z,4.00
2022-09-07T11:14:09.261Z,4.27
2022-09-07T11:17:03.423Z,4.70
2022-09-07T11:20:02.003Z,4.57
2022-09-07T11:22:51.915Z,5.27
2022-09-07T11:25:42.353Z,5.20
2022-09-07T11:28:39.635Z,5.57
2022-09-07T11:31:27.856Z,4.43
2022-09-07T11:34:25.435Z,4.80
2022-09-07T11:37:20.619Z,4.50
2022-09-07T11:40:21.446Z,4.43
2022-09-07T11:43:17.127Z,4.50
2022-09-07T11:46:04.713Z,4.00
2022-09-07T11:48:55.296Z,4.20
2022-09-07T11:51:43.313Z,4.63
2022-09-07T11:54:36.066Z,4.53
2022-09-07T11:57:37.190Z,4.23
2022-09-07T12:00:42.049Z,3.97
2022-09-07T12:03:40.027Z,3.67
2022-09-07T12:06:32.028Z,4.10
2022-09-07T12:09:17.694Z,4.10
2022-09-07T12:12:23.514Z,3.43
2022-09-07T12:15:22.249Z,4.47
2022-09-07T12:18:23.801Z,3.90
2022-09-07T12:21:28.323Z,4.00
2022-09-07T12:24:32.617Z,3.60
2022-09-07T12:27:21.532Z,4.07
2022-09-07T12:30:13.459Z,3.43
2022-09-07T12:33:06.553Z,3.40
2022-09-07T12:35:53.224Z,3.40
2022-09-07T12:38:59.406Z,3.60
2022-09-07T12:41:47.288Z,3.40
2022-09-07T12:44:34.565Z,3.80
2022-09-07T12:47:29.389Z,3.50
2022-09-07T12:50:19.587Z,3.43
2022-09-07T12:53:05.745Z,3.40
2022-09-07T12:56:17.861Z,3.33
2022-09-07T12:59:22.858Z,3.67
2022-09-07T13:02:20.844Z,3.60
2022-09-07T13:05:10.445Z,4.30
2022-09-07T13:08:09.605Z,3.70
2022-09-07T13:10:55.506Z,3.80
2022-09-07T13:20:04.829Z,4.10
2022-09-07T13:22:55.096Z,3.40
2022-09-07T13:25:45.680Z,3.40
2022-09-07T13:28:38.052Z,3.23
2022-09-07T13:31:43.005Z,3.77
2022-09-07T13:34:34.680Z,3.40
2022-09-07T13:37:25.683Z,3.67
2022-09-07T13:40:14.534Z,3.93
2022-09-07T13:43:01.530Z,3.53
2022-09-07T13:45:54.431Z,3.70
2022-09-07T13:49:03.107Z,3.80
2022-09-07T13:52:07.191Z,3.17
2022-09-07T13:54:59.523Z,4.20
2022-09-07T13:57:51.388Z,3.90
2022-09-07T14:00:37.635Z,3.23
2022-09-07T14:03:27.815Z,3.60
2022-09-07T14:06:19.945Z,3.63
2022-09-07T14:09:15.026Z,3.40
2022-09-07T14:12:01.067Z,3.70
2022-09-07T14:14:48.890Z,3.10
2022-09-07T14:17:35.508Z,3.77
2022-09-07T14:20:22.297Z,3.27
2022-09-07T14:23:13.839Z,3.50
2022-09-07T14:26:17.194Z,3.60
2022-09-07T14:29:03.621Z,2.93
2022-09-07T14:31:49.504Z,3.30
2022-09-07T14:34:39.138Z,3.50
2022-09-07T14:37:24.969Z,3.17
2022-09-07T14:40:16.719Z,2.80
2022-09-07T14:43:03.011Z,2.63
2022-09-07T14:45:49.576Z,2.97
2022-09-07T14:48:39.452Z,3.47
2022-09-07T14:51:35.681Z,3.50
2022-09-07T14:54:27.346Z,3.33
2022-09-07T14:57:13.237Z,3.00
2022-09-07T15:00:19.151Z,2.93
2022-09-07T15:03:23.631Z,3.30
2022-09-07T15:07:01.002Z,3.53
2022-09-07T15:09:28.076Z,3.90
2022-09-07T15:12:37.912Z,3.33
2022-09-07T15:15:30.059Z,3.30
2022-09-07T15:18:34.637Z,3.37
2022-09-07T15:21:21.325Z,3.07
2022-09-07T15:24:07.770Z,3.37
2022-09-07T15:27:02.675Z,3.20
2022-09-07T15:29:49.995Z,3.70
2022-09-07T15:32:37.672Z,3.50
2022-09-07T15:35:24.906Z,3.53
2022-09-07T15:41:24.007Z,5.80
2022-09-07T15:44:12.483Z,4.30
2022-09-07T15:50:08.255Z,3.93
2022-09-07T15:52:57.581Z,4.03
2022-09-07T15:55:54.008Z,3.80
2022-09-07T15:58:39.973Z,4.30
2022-09-07T16:04:31.465Z,3.93
2022-09-07T16:07:18.195Z,3.73
2022-09-07T16:10:05.905Z,4.10
2022-09-07T16:13:01.217Z,4.40
2022-09-07T16:15:48.897Z,3.90
2022-09-07T16:18:35.228Z,4.30
2022-09-07T16:21:26.355Z,3.43
2022-09-07T16:24:12.702Z,4.20
2022-09-07T16:26:58.852Z,4.13
2022-09-07T16:29:45.033Z,3.87
2022-09-07T16:32:47.665Z,3.83
2022-09-07T16:35:36.900Z,3.30
2022-09-07T16:41:31.274Z,4.43
2022-09-07T16:44:17.031Z,3.70
2022-09-07T16:47:04.263Z,3.87
2022-09-07T16:49:50.660Z,4.00
2022-09-07T16:52:37.917Z,3.60
2022-09-07T16:55:24.808Z,4.00
2022-09-07T17:01:17.553Z,4.53
2022-09-07T17:04:09.661Z,3.50
2022-09-07T17:06:58.374Z,3.40
2022-09-07T17:09:47.131Z,3.30
2022-09-07T17:12:35.365Z,3.40
2022-09-07T17:15:20.905Z,2.80
2022-09-07T17:18:07.687Z,2.93
2022-09-07T17:21:03.476Z,2.50
2022-09-07T17:23:55.399Z,3.20
2022-09-07T17:26:43.685Z,3.00
2022-09-07T17:29:32.792Z,3.70
2022-09-07T17:35:30.753Z,3.07
2022-09-07T17:41:30.752Z,3.80
2022-09-07T17:44:23.414Z,2.87
2022-09-07T17:47:11.372Z,3.10
2022-09-07T17:49:57.817Z,3.10
2022-09-07T17:52:45.773Z,3.10
2022-09-07T17:55:32.151Z,2.70
2022-09-07T17:58:18.756Z,3.50
2022-09-07T18:01:05.852Z,3.57
2022-09-07T18:03:52.480Z,2.90
2022-09-07T18:06:41.291Z,3.40
2022-09-07T18:09:29.887Z,2.90
2022-09-07T18:12:15.767Z,3.30
2022-09-07T18:15:01.662Z,3.03
2022-09-07T18:17:49.023Z,3.77
2022-09-07T18:20:35.289Z,4.33
2022-09-07T18:23:21.398Z,3.77
2022-09-07T18:26:08.936Z,3.80
2022-09-07T18:29:26.208Z,4.17
2022-09-07T18:32:02.913Z,3.73
2022-09-07T18:34:53.177Z,3.77
2022-09-07T18:37:40.280Z,3.60
2022-09-07T18:40:26.093Z,3.50
2022-09-07T18:43:12.982Z,3.67
2022-09-07T18:46:08.540Z,4.10
2022-09-07T18:48:55.828Z,5.90
2022-09-07T18:57:58.857Z,5.80
2022-09-07T19:00:45.905Z,5.03
2022-09-07T19:03:33.362Z,4.87
2022-09-07T19:06:18.995Z,4.17
2022-09-07T19:09:05.874Z,4.20
2022-09-07T19:11:55.182Z,4.10
2022-09-07T19:14:42.002Z,5.87
2022-09-07T19:17:27.592Z,3.73
2022-09-07T19:20:16.076Z,4.33
2022-09-07T19:23:03.338Z,4.23
2022-09-07T19:25:50.963Z,3.17
2022-09-07T19:28:36.956Z,4.90
2022-09-07T19:31:24.440Z,5.07
2022-09-07T19:34:10.662Z,4.20
2022-09-07T19:36:56.469Z,3.93
2022-09-07T19:39:42.037Z,4.50
2022-09-07T19:42:29.749Z,4.00
2022-09-07T19:45:16.898Z,5.33
2022-09-07T19:48:03.980Z,4.23
2022-09-07T19:50:50.993Z,4.27
2022-09-07T19:53:39.401Z,4.53
2022-09-07T19:56:25.795Z,4.40
2022-09-07T19:59:11.938Z,4.40
2022-09-07T20:01:58.901Z,4.83
2022-09-07T20:04:46.276Z,4.23
2022-09-07T20:07:32.221Z,4.40
2022-09-07T20:10:18.574Z,3.80
2022-09-07T20:13:04.834Z,5.80
2022-09-07T20:15:50.770Z,4.80
2022-09-07T20:18:38.023Z,4.90
2022-09-07T20:21:24.884Z,4.30
2022-09-07T20:24:12.715Z,3.73
2022-09-07T20:26:58.978Z,5.73
2022-09-07T20:29:45.597Z,12.60
2022-09-07T20:32:31.660Z,4.37
2022-09-07T20:35:17.668Z,4.50
2022-09-07T20:38:03.829Z,8.70
2022-09-07T20:40:53.515Z,4.10
2022-09-07T20:43:41.209Z,4.17
2022-09-07T20:46:27.630Z,4.20
2022-09-07T20:49:13.657Z,4.03
2022-09-07T20:51:59.510Z,4.30
2022-09-07T20:54:45.383Z,4.10
2022-09-07T20:57:32.509Z,5.00
2022-09-07T21:00:19.483Z,3.90
2022-09-07T21:03:06.892Z,4.60
2022-09-07T21:05:52.629Z,4.10
2022-09-07T21:08:39.683Z,6.27
2022-09-07T21:11:26.971Z,8.23
2022-09-07T21:14:13.339Z,4.47
2022-09-07T21:16:58.946Z,3.70
2022-09-07T21:19:46.337Z,4.80
2022-09-07T21:22:32.140Z,4.00
2022-09-07T21:25:17.808Z,5.00
2022-09-07T21:28:04.778Z,5.53
2022-09-07T21:31:00.851Z,3.87
2022-09-07T21:33:47.046Z,3.60
2022-09-07T21:36:33.957Z,3.50
2022-09-07T21:39:21.649Z,3.80
2022-09-07T21:42:07.896Z,3.40
2022-09-07T21:44:53.639Z,5.07
2022-09-07T21:47:39.507Z,4.63
2022-09-07T21:50:25.405Z,3.97
2022-09-07T21:53:13.565Z,4.30
2022-09-07T21:56:03.672Z,4.40
2022-09-07T21:58:49.223Z,4.30
2022-09-07T22:01:35.843Z,4.20
2022-09-07T22:04:23.126Z,3.57
2022-09-07T22:07:09.080Z,4.80
2022-09-07T22:09:54.872Z,5.07
2022-09-07T22:12:43.535Z,4.93
2022-09-07T22:15:32.694Z,5.50
2022-09-07T22:18:19.039Z,4.50
2022-09-07T22:21:15.339Z,4.67
2022-09-07T22:24:04.879Z,4.40
2022-09-07T22:26:50.888Z,4.40
2022-09-07T22:29:37.120Z,4.50
2022-09-07T22:32:23.299Z,5.30
2022-09-07T22:35:10.127Z,5.00
2022-09-07T22:37:59.292Z,4.97
2022-09-07T22:40:45.239Z,4.87
2022-09-07T22:43:31.203Z,5.30
2022-09-07T22:46:18.356Z,5.30
2022-09-07T22:49:05.082Z,4.80
2022-09-07T22:51:51.321Z,5.17
2022-09-07T22:54:38.455Z,4.30
2022-09-07T22:57:24.221Z,5.20
2022-09-07T23:00:10.649Z,6.00
2022-09-07T23:02:57.797Z,5.13
2022-09-07T23:05:44.000Z,5.30
2022-09-07T23:08:30.162Z,6.27
2022-09-07T23:11:17.018Z,5.33
2022-09-07T23:14:04.328Z,5.50
2022-09-07T23:16:51.750Z,5.67
2022-09-07T23:19:40.636Z,5.23
2022-09-07T23:22:28.450Z,5.40
2022-09-07T23:25:14.730Z,5.17
2022-09-07T23:28:02.141Z,8.73
2022-09-07T23:30:49.127Z,8.03
2022-09-07T23:33:35.195Z,6.70
2022-09-07T23:36:21.306Z,5.47
2022-09-07T23:39:07.727Z,5.60
2022-09-07T23:41:53.648Z,6.40
2022-09-07T23:44:39.961Z,6.23
2022-09-07T23:47:27.634Z,5.43
2022-09-07T23:50:15.275Z,6.30
2022-09-07T23:53:03.722Z,6.40
2022-09-07T23:55:50.416Z,5.27
2022-09-07T23:58:36.850Z,8.83
